Time;durP1;ratioP1;P1;durP2;ratioP2;P2;SDS_P1;SDS_P2;PMS_P1;PMS_P2;Temp;Humidity;BMP_temperature;BMP_pressure;BME280_temperature;BME280_humidity;BME280_pressure;Samples;Min_cycle;Max_cycle;Signal;HPM_P1;HPM_P2
2023/11/03 00:02:20;;;;;;;8.00;4.17;;;;;;;17.55;72.28;93425.75;5009767;28;20029;-80
2023/11/03 00:04:47;;;;;;;7.87;4.30;;;;;;;17.26;79.92;93428.22;5035536;28;20028;-79
2023/11/03 00:07:14;;;;;;;6.10;3.87;;;;;;;17.49;80.42;93442.78;4990542;28;20040;-79
2023/11/03 00:09:40;;;;;;;8.00;4.30;;;;;;;17.57;77.25;93441.41;5011673;28;20036;-79
2023/11/03 00:12:06;;;;;;;7.73;4.53;;;;;;;17.67;73.45;93447.50;5001227;28;20057;-79
2023/11/03 00:14:33;;;;;;;7.47;4.60;;;;;;;18.09;72.97;93432.19;4993309;28;20030;-79
2023/11/03 00:16:59;;;;;;;6.97;4.40;;;;;;;18.22;71.23;93420.97;5002786;28;20069;-79
2023/11/03 00:19:26;;;;;;;9.10;5.17;;;;;;;17.68;72.76;93430.50;5000527;28;20036;-80
2023/11/03 00:21:53;;;;;;;9.10;5.17;;;;;;;17.02;79.75;93438.63;4992252;28;20720;-79
2023/11/03 00:24:19;;;;;;;8.70;4.07;;;;;;;16.90;81.92;93430.13;5001959;28;20060;-80
2023/11/03 00:26:47;;;;;;;7.90;4.40;;;;;;;17.66;77.21;93426.50;5009447;28;20059;-79
2023/11/03 00:29:15;;;;;;;7.23;4.60;;;;;;;17.54;73.94;93426.84;4995658;28;20030;-79
2023/11/03 00:31:45;;;;;;;8.23;4.87;;;;;;;17.78;72.10;93420.94;4995364;28;20720;-79
2023/11/03 00:34:15;;;;;;;7.47;4.50;;;;;;;17.87;71.65;93412.13;4998558;28;20041;-79
2023/11/03 00:36:42;;;;;;;9.87;5.30;;;;;;;17.86;69.71;93407.06;5013362;28;21250;-80
2023/11/03 00:39:12;;;;;;;9.47;5.53;;;;;;;17.99;68.58;93398.47;4991367;28;20025;-80
2023/11/03 00:41:47;;;;;;;8.17;5.23;;;;;;;17.33;71.89;93399.50;4995812;28;20056;-79
2023/11/03 00:44:14;;;;;;;8.67;5.37;;;;;;;17.03;78.33;93399.59;5008376;28;20048;-79
2023/11/03 00:46:42;;;;;;;7.37;4.57;;;;;;;16.91;75.80;93418.47;5003803;28;20108;-79
2023/11/03 00:49:09;;;;;;;8.03;4.83;;;;;;;16.78;80.70;93422.44;4996259;28;20036;-79
2023/11/03 00:51:35;;;;;;;7.17;4.60;;;;;;;16.94;78.60;93424.03;5001765;28;20044;-79
2023/11/03 00:54:03;;;;;;;7.47;4.73;;;;;;;17.26;72.89;93414.16;5012467;28;20551;-79
2023/11/03 00:56:29;;;;;;;6.97;4.60;;;;;;;16.97;76.16;93414.75;5015322;28;20356;-80
2023/11/03 00:58:55;;;;;;;8.97;5.20;;;;;;;17.27;75.95;93408.59;4994955;28;20032;-80
2023/11/03 01:01:21;;;;;;;8.53;5.43;;;;;;;17.36;71.08;93401.63;5008703;28;20447;-79
2023/11/03 01:03:48;;;;;;;8.17;5.13;;;;;;;17.30;71.49;93393.94;5009480;28;20043;-79
2023/11/03 01:06:13;;;;;;;7.93;5.60;;;;;;;17.30;73.30;93388.63;4996104;28;20040;-79
2023/11/03 01:08:39;;;;;;;9.97;5.63;;;;;;;16.68;74.82;93394.03;5008666;28;20029;-79
2023/11/03 01:11:09;;;;;;;9.17;5.57;;;;;;;17.08;77.97;93394.28;4991837;28;20026;-79
2023/11/03 01:13:39;;;;;;;10.43;5.00;;;;;;;17.03;76.70;93395.06;4991089;28;20040;-79
2023/11/03 01:16:08;;;;;;;7.73;4.77;;;;;;;16.64;76.38;93406.25;4998275;28;20032;-79
2023/11/03 01:18:35;;;;;;;9.53;5.40;;;;;;;16.80;78.17;93414.22;5007518;28;20501;-79
2023/11/03 01:21:09;;;;;;;7.93;4.77;;;;;;;16.36;80.59;93422.66;5009851;28;20017;-79
2023/11/03 01:23:35;;;;;;;6.43;4.22;;;;;;;16.63;81.15;93427.72;4991084;28;20116;-79
2023/11/03 01:26:03;;;;;;;9.23;5.30;;;;;;;15.78;86.51;93436.06;5021462;28;20036;-80
2023/11/03 01:28:30;;;;;;;9.57;5.17;;;;;;;15.64;90.79;93442.88;5039680;28;20025;-80
2023/11/03 01:30:57;;;;;;;9.77;6.13;;;;;;;15.61;91.71;93448.69;5000943;28;20029;-79
2023/11/03 01:33:22;;;;;;;9.47;5.70;;;;;;;16.20;89.13;93438.56;5005431;28;20025;-79
2023/11/03 01:35:48;;;;;;;9.07;6.07;;;;;;;15.87;89.04;93433.72;4996821;28;20034;-79
2023/11/03 01:38:14;;;;;;;8.73;5.63;;;;;;;15.81;88.49;93432.88;5016786;28;20018;-79
2023/11/03 01:40:40;;;;;;;8.90;5.17;;;;;;;15.97;90.59;93431.09;5005293;28;20028;-79
2023/11/03 01:43:06;;;;;;;8.90;5.37;;;;;;;16.16;87.41;93434.84;5013039;28;20029;-79
2023/11/03 01:45:31;;;;;;;8.87;5.37;;;;;;;16.41;82.46;93433.28;5012598;28;20029;-79
2023/11/03 01:47:59;;;;;;;8.27;5.50;;;;;;;16.21;85.95;93444.66;5013508;28;20591;-79
2023/11/03 01:50:25;;;;;;;7.03;4.80;;;;;;;15.72;88.23;93443.19;5034938;28;20508;-79
2023/11/03 01:52:51;;;;;;;10.53;5.77;;;;;;;15.65;90.42;93453.19;5018897;28;20030;-79
2023/11/03 01:55:26;;;;;;;9.83;5.47;;;;;;;15.66;90.17;93449.53;5012803;28;20024;-79
2023/11/03 01:57:51;;;;;;;10.13;5.67;;;;;;;15.78;92.88;93451.94;4994556;28;20029;-79
2023/11/03 02:00:19;;;;;;;8.97;5.57;;;;;;;16.20;88.63;93448.38;4997417;28;20163;-80
2023/11/03 02:02:45;;;;;;;11.70;7.20;;;;;;;16.17;87.55;93455.00;5010697;28;20024;-79
2023/11/03 02:05:10;;;;;;;8.90;5.87;;;;;;;16.15;83.13;93456.31;4990079;28;20040;-79
2023/11/03 02:07:37;;;;;;;10.37;6.03;;;;;;;16.59;83.85;93451.31;4996509;28;20037;-79
2023/11/03 02:10:07;;;;;;;8.23;5.40;;;;;;;16.80;77.56;93446.06;5001157;28;20759;-79
2023/11/03 02:12:33;;;;;;;9.87;5.40;;;;;;;16.57;79.60;93452.69;5026523;28;20198;-79
2023/11/03 02:14:59;;;;;;;11.37;6.37;;;;;;;16.61;76.19;93443.13;5021968;28;20513;-79
2023/11/03 02:17:24;;;;;;;10.27;6.07;;;;;;;16.57;81.52;93439.41;5005537;28;20064;-79
2023/11/03 02:19:50;;;;;;;8.30;5.33;;;;;;;16.57;78.98;93437.56;5002701;28;20368;-79
2023/11/03 02:22:16;;;;;;;8.90;5.57;;;;;;;16.80;74.58;93438.91;4994519;28;20032;-79
2023/11/03 02:24:43;;;;;;;8.47;5.20;;;;;;;16.98;73.73;93440.22;5014171;28;20031;-79
2023/11/03 02:27:08;;;;;;;11.10;4.60;;;;;;;16.94;71.17;93433.88;5015407;28;20033;-79
2023/11/03 02:29:34;;;;;;;7.80;5.30;;;;;;;16.87;72.70;93438.66;4996322;28;20030;-79
2023/11/03 02:32:07;;;;;;;7.43;5.00;;;;;;;16.40;72.04;93443.09;5004371;28;20017;-79
2023/11/03 02:34:33;;;;;;;8.65;5.18;;;;;;;16.29;75.63;93443.34;5011572;28;20570;-79
2023/11/03 02:36:59;;;;;;;10.17;5.23;;;;;;;16.36;73.98;93447.31;5009349;28;20022;-79
2023/11/03 02:39:25;;;;;;;7.87;4.57;;;;;;;16.59;72.86;93446.03;4993860;28;20032;-79
2023/11/03 02:41:51;;;;;;;9.33;5.07;;;;;;;16.49;72.59;93441.50;5001266;28;20017;-79
2023/11/03 02:44:16;;;;;;;7.30;4.93;;;;;;;16.81;72.17;93443.16;5000876;28;20079;-80
2023/11/03 02:46:44;;;;;;;7.83;5.03;;;;;;;16.64;69.94;93438.09;5013951;28;20491;-78
2023/11/03 02:49:10;;;;;;;8.90;5.57;;;;;;;16.42;70.06;93450.78;5010358;28;20028;-79
2023/11/03 02:51:37;;;;;;;8.47;5.33;;;;;;;15.97;74.58;93454.94;5019788;28;20026;-79
2023/11/03 02:54:03;;;;;;;9.50;6.03;;;;;;;15.54;79.29;93451.56;4995208;28;20025;-79
2023/11/03 02:56:28;;;;;;;8.97;5.13;;;;;;;15.94;80.54;93450.16;4989993;28;20026;-79
2023/11/03 02:58:54;;;;;;;9.03;4.90;;;;;;;15.88;80.12;93451.19;5010777;28;20406;-79
2023/11/03 03:01:27;;;;;;;8.63;5.43;;;;;;;15.91;78.13;93448.03;5016152;28;20017;-79
2023/11/03 03:04:05;;;;;;;10.55;6.10;;;;;;;16.31;73.61;93439.38;5000448;28;20513;-79
2023/11/03 03:06:31;;;;;;;10.03;5.83;;;;;;;16.48;71.57;93445.22;4994157;28;20072;-79
2023/11/03 03:08:57;;;;;;;8.17;5.27;;;;;;;16.39;71.46;93438.06;5001536;28;20045;-79
2023/11/03 03:11:23;;;;;;;8.70;5.77;;;;;;;16.23;71.34;93437.22;5010939;28;20407;-79
2023/11/03 03:13:48;;;;;;;9.17;5.50;;;;;;;15.59;80.50;93443.63;5007169;28;20022;-79
2023/11/03 03:16:18;;;;;;;15.27;7.27;;;;;;;14.99;83.05;93445.69;4992952;28;20033;-79
2023/11/03 03:18:44;;;;;;;8.33;4.97;;;;;;;15.42;81.54;93443.81;5000149;28;20028;-79
2023/11/03 03:21:10;;;;;;;8.33;5.33;;;;;;;15.70;78.28;93440.00;5001017;28;20025;-79
2023/11/03 03:23:35;;;;;;;9.97;5.17;;;;;;;15.55;77.29;93437.25;4993069;28;20021;-79
2023/11/03 03:26:01;;;;;;;9.17;5.80;;;;;;;15.51;78.76;93431.69;5026111;28;20031;-79
2023/11/03 03:28:26;;;;;;;10.60;5.37;;;;;;;15.46;76.93;93429.03;4995825;28;20029;-79
2023/11/03 03:30:52;;;;;;;10.73;5.53;;;;;;;15.35;80.56;93426.56;5020925;28;20731;-79
2023/11/03 03:33:18;;;;;;;8.10;5.10;;;;;;;15.43;75.26;93428.75;5001265;28;20483;-79
2023/11/03 03:35:43;;;;;;;9.10;5.00;;;;;;;15.46;78.99;93429.03;5019804;28;20036;-79
2023/11/03 03:38:09;;;;;;;10.20;5.20;;;;;;;15.49;76.77;93419.75;5010649;28;20017;-79
2023/11/03 03:40:38;;;;;;;10.27;5.07;;;;;;;15.08;84.67;93416.88;5020285;28;20470;-79
2023/11/03 03:43:03;;;;;;;8.90;5.00;;;;;;;15.40;79.11;93424.75;5028571;28;20020;-79
2023/11/03 03:45:29;;;;;;;7.20;4.67;;;;;;;15.79;73.31;93417.25;5007840;28;21632;-79
2023/11/03 03:47:54;;;;;;;10.77;4.60;;;;;;;15.54;75.25;93407.31;5003145;28;20029;-79
2023/11/03 03:50:20;;;;;;;10.10;4.30;;;;;;;15.33;77.36;93410.94;5015457;28;20172;-79
2023/11/03 03:52:46;;;;;;;7.73;3.90;;;;;;;15.06;81.51;93409.22;5012166;28;20470;-79
2023/11/03 03:55:11;;;;;;;9.07;4.60;;;;;;;15.40;78.77;93403.56;5001179;28;20021;-79
2023/11/03 03:57:37;;;;;;;7.60;4.23;;;;;;;15.70;74.13;93397.63;5009487;28;20029;-79
2023/11/03 04:00:05;;;;;;;8.43;4.20;;;;;;;15.46;76.85;93401.72;5005403;28;20010;-79
2023/11/03 04:02:30;;;;;;;6.60;3.47;;;;;;;15.48;75.89;93410.22;5018428;28;20462;-79
2023/11/03 04:04:57;;;;;;;10.80;4.83;;;;;;;15.58;75.18;93410.25;5015333;28;20035;-79
2023/11/03 04:07:22;;;;;;;7.93;4.30;;;;;;;15.67;72.75;93406.09;5017200;28;20036;-79
2023/11/03 04:09:48;;;;;;;9.20;4.47;;;;;;;15.04;73.69;93415.81;5026122;28;20583;-79
2023/11/03 04:12:13;;;;;;;7.73;4.67;;;;;;;15.37;74.10;93416.53;5001353;28;20505;-79
2023/11/03 04:15:04;;;;;;;9.97;4.97;;;;;;;15.38;76.64;93405.66;5019469;28;20718;-79
2023/11/03 04:17:30;;;;;;;8.87;5.30;;;;;;;15.68;72.24;93410.31;5015017;28;20033;-79
2023/11/03 04:20:03;;;;;;;10.27;4.70;;;;;;;15.72;73.65;93413.25;5017308;28;20396;-79
2023/11/03 04:22:32;;;;;;;9.53;4.97;;;;;;;15.23;75.79;93405.59;5015254;28;20052;-79
2023/11/03 04:24:57;;;;;;;8.00;4.57;;;;;;;15.61;74.69;93409.72;4995752;28;20487;-79
2023/11/03 04:27:23;;;;;;;11.07;5.17;;;;;;;15.23;70.88;93416.97;5024226;28;20036;-79
2023/11/03 04:29:48;;;;;;;11.73;5.40;;;;;;;14.68;80.62;93423.50;5015590;28;20017;-79
2023/11/03 04:32:14;;;;;;;8.03;5.50;;;;;;;14.75;82.45;93428.56;5009664;28;20034;-79
2023/11/03 04:34:39;;;;;;;9.70;5.27;;;;;;;14.28;84.09;93451.16;5001770;28;20025;-79
2023/11/03 04:37:05;;;;;;;10.60;5.53;;;;;;;14.48;84.32;93453.19;5016851;28;20020;-77
2023/11/03 04:39:30;;;;;;;11.27;5.10;;;;;;;14.49;87.04;93451.38;5034285;28;20025;-77
2023/11/03 04:41:56;;;;;;;10.07;5.03;;;;;;;14.49;88.33;93438.13;5012420;28;20022;-77
2023/11/03 04:44:22;;;;;;;9.50;4.80;;;;;;;14.47;88.59;93446.31;5005076;28;20039;-77
2023/11/03 04:46:47;;;;;;;11.87;4.80;;;;;;;14.59;86.81;93444.34;4999781;28;20036;-77
2023/11/03 04:49:14;;;;;;;9.43;5.17;;;;;;;14.55;86.88;93461.75;4994498;28;20029;-77
2023/11/03 04:51:40;;;;;;;7.40;4.50;;;;;;;14.56;87.93;93467.84;5001817;28;20395;-78
2023/11/03 04:54:07;;;;;;;12.90;4.60;;;;;;;14.39;88.23;93468.72;5013500;28;20087;-77
2023/11/03 04:56:33;;;;;;;9.17;3.93;;;;;;;14.64;87.90;93462.09;5017079;28;20487;-77
2023/11/03 04:58:58;;;;;;;8.90;4.20;;;;;;;14.90;86.67;93447.22;5018958;28;20033;-77
2023/11/03 05:01:25;;;;;;;7.50;3.80;;;;;;;14.84;88.76;93449.00;5021707;28;20041;-77
2023/11/03 05:03:51;;;;;;;9.27;3.80;;;;;;;13.98;90.77;93448.22;5000461;28;20080;-77
2023/11/03 05:06:19;;;;;;;9.53;3.50;;;;;;;14.19;95.18;93450.03;4998762;28;20032;-78
2023/11/03 05:08:45;;;;;;;9.03;3.90;;;;;;;14.53;89.27;93441.91;5014167;28;20395;-77
2023/11/03 05:11:10;;;;;;;7.57;4.37;;;;;;;15.17;84.99;93439.19;4989455;28;20025;-77
2023/11/03 05:13:41;;;;;;;9.67;4.23;;;;;;;15.48;78.68;93444.63;5006253;28;20581;-77
2023/11/03 05:16:07;;;;;;;8.43;3.60;;;;;;;15.28;82.66;93443.47;5008502;28;20022;-78
2023/11/03 05:18:34;;;;;;;9.17;3.23;;;;;;;15.51;76.55;93446.78;4993475;28;20040;-78
2023/11/03 05:21:00;;;;;;;6.77;3.00;;;;;;;14.78;85.19;93450.03;5014545;28;20021;-78
2023/11/03 05:23:26;;;;;;;8.67;2.53;;;;;;;14.64;91.75;93461.28;5016712;28;20482;-78
2023/11/03 05:25:52;;;;;;;5.70;2.40;;;;;;;15.05;87.60;93454.44;5001373;28;20028;-78
2023/11/03 05:28:18;;;;;;;6.27;2.00;;;;;;;15.23;81.06;93469.13;5013449;28;20025;-77
2023/11/03 05:30:44;;;;;;;6.40;2.63;;;;;;;16.09;78.16;93457.34;5005470;28;20571;-79
2023/11/03 05:33:09;;;;;;;4.97;2.20;;;;;;;16.20;74.12;93457.13;5001401;28;20083;-78
2023/11/03 05:35:35;;;;;;;5.60;1.70;;;;;;;15.82;77.36;93457.53;5023535;28;20029;-78
2023/11/03 05:38:01;;;;;;;5.10;1.50;;;;;;;15.86;73.55;93451.47;4991455;28;20053;-78
2023/11/03 05:40:28;;;;;;;7.87;2.07;;;;;;;15.98;78.02;93451.22;5013599;28;20079;-78
2023/11/03 05:42:53;;;;;;;7.03;1.70;;;;;;;16.59;72.80;93447.88;4997501;28;20037;-77
2023/11/03 05:45:19;;;;;;;7.93;1.90;;;;;;;15.98;78.36;93448.56;4989317;28;20833;-78
2023/11/03 05:47:45;;;;;;;4.80;1.57;;;;;;;15.91;75.34;93453.31;5012540;28;20041;-78
2023/11/03 05:50:11;;;;;;;4.63;1.70;;;;;;;16.16;75.10;93448.09;4999489;28;20694;-78
2023/11/03 05:52:36;;;;;;;5.97;1.73;;;;;;;16.18;76.53;93450.47;5008135;28;20032;-79
2023/11/03 05:55:02;;;;;;;7.17;2.30;;;;;;;16.29;77.34;93457.38;5021330;28;20123;-78
2023/11/03 05:57:38;;;;;;;8.60;2.20;;;;;;;16.60;72.90;93447.63;4991016;28;20509;-78
2023/11/03 06:00:11;;;;;;;5.63;2.10;;;;;;;16.13;73.68;93453.94;4997372;28;20025;-78
2023/11/03 06:02:37;;;;;;;6.18;1.50;;;;;;;16.08;78.39;93451.25;4997023;28;20056;-78
2023/11/03 06:05:04;;;;;;;8.50;2.17;;;;;;;16.14;76.64;93450.22;4996505;28;20480;-78
2023/11/03 06:07:30;;;;;;;6.23;1.80;;;;;;;15.92;78.43;93454.91;4992871;28;20403;-78
2023/11/03 06:09:56;;;;;;;6.73;1.90;;;;;;;16.03;79.00;93453.91;4993225;28;20025;-79
2023/11/03 06:12:24;;;;;;;8.23;2.20;;;;;;;15.83;77.75;93453.81;5010390;28;20048;-78
2023/11/03 06:14:56;;;;;;;4.93;1.60;;;;;;;15.85;77.54;93457.00;5017279;28;20029;-78
2023/11/03 06:17:22;;;;;;;7.88;2.03;;;;;;;15.81;76.62;93461.25;5007562;28;20805;-78
2023/11/03 06:19:47;;;;;;;5.43;1.67;;;;;;;15.56;81.42;93457.41;5001068;28;20025;-79
2023/11/03 06:22:13;;;;;;;4.30;1.57;;;;;;;15.58;79.01;93465.88;5042703;28;20029;-79
2023/11/03 06:24:38;;;;;;;4.83;1.90;;;;;;;15.31;81.43;93469.44;4997326;28;20027;-78
2023/11/03 06:27:09;;;;;;;6.40;2.73;;;;;;;15.74;79.11;93467.56;5014555;28;20025;-78
2023/11/03 06:29:35;;;;;;;5.90;1.73;;;;;;;15.45;83.99;93471.63;5012675;28;20160;-78
2023/11/03 06:32:01;;;;;;;3.80;1.70;;;;;;;14.92;87.18;93471.56;4995242;28;20022;-78
2023/11/03 06:34:27;;;;;;;7.57;2.87;;;;;;;15.20;83.39;93473.09;5004200;28;20491;-78
2023/11/03 06:36:52;;;;;;;3.67;1.50;;;;;;;15.83;80.83;93486.44;4996400;28;20040;-78
2023/11/03 06:39:18;;;;;;;5.70;2.30;;;;;;;16.30;75.70;93484.69;5002481;28;20469;-78
2023/11/03 06:41:44;;;;;;;7.13;2.00;;;;;;;16.16;76.35;93495.00;4998330;28;20497;-79
2023/11/03 06:44:10;;;;;;;7.40;2.43;;;;;;;15.83;77.79;93506.81;5010224;28;20021;-78
2023/11/03 06:46:35;;;;;;;7.27;2.23;;;;;;;15.85;82.11;93505.50;5003640;28;20087;-78
2023/11/03 06:49:01;;;;;;;7.87;2.80;;;;;;;16.08;78.67;93503.47;5002047;28;20029;-78
2023/11/03 06:51:26;;;;;;;9.50;2.93;;;;;;;15.79;77.72;93512.66;5013378;28;20041;-78
2023/11/03 06:53:52;;;;;;;6.17;2.50;;;;;;;16.19;76.22;93516.50;5004729;28;20029;-78
2023/11/03 06:56:17;;;;;;;5.97;1.90;;;;;;;16.27;77.71;93517.88;5011325;28;20563;-78
2023/11/03 06:58:43;;;;;;;8.97;3.10;;;;;;;16.29;74.52;93525.53;5010949;28;20395;-79
2023/11/03 07:01:08;;;;;;;7.20;2.10;;;;;;;16.34;74.30;93528.22;5036707;28;20036;-78
2023/11/03 07:03:34;;;;;;;5.07;2.20;;;;;;;16.39;72.87;93536.19;5016303;28;20029;-79
2023/11/03 07:06:03;;;;;;;7.20;2.37;;;;;;;16.45;73.57;93529.84;4995799;28;20025;-78
2023/11/03 07:08:30;;;;;;;6.63;1.90;;;;;;;16.47;73.87;93538.34;4997964;28;20099;-78
2023/11/03 07:10:58;;;;;;;8.17;2.67;;;;;;;16.18;74.56;93536.13;5008173;28;20060;-79
2023/11/03 07:13:25;;;;;;;8.50;2.30;;;;;;;16.48;73.14;93540.72;4999389;28;20029;-80
2023/11/03 07:15:51;;;;;;;4.60;1.57;;;;;;;16.38;75.87;93537.25;4994940;28;20616;-79
2023/11/03 07:18:16;;;;;;;6.40;1.80;;;;;;;16.35;75.04;93535.91;4995801;28;20120;-79
2023/11/03 07:20:42;;;;;;;5.87;1.40;;;;;;;16.11;75.21;93529.47;5018440;28;20520;-80
2023/11/03 07:23:08;;;;;;;3.27;1.50;;;;;;;16.14;77.13;93529.75;4997069;28;20021;-79
2023/11/03 07:25:41;;;;;;;5.67;1.33;;;;;;;16.25;77.45;93533.22;5009665;28;20368;-79
2023/11/03 07:28:06;;;;;;;3.55;1.50;;;;;;;16.06;77.89;93546.13;5000098;28;20025;-79
2023/11/03 07:30:32;;;;;;;4.23;1.47;;;;;;;15.84;84.11;93542.88;5003449;28;20033;-79
2023/11/03 07:33:00;;;;;;;6.97;1.57;;;;;;;16.13;79.85;93536.13;5005568;28;20078;-79
2023/11/03 07:35:26;;;;;;;9.67;1.40;;;;;;;16.10;76.53;93536.63;5007160;28;20108;-79
2023/11/03 07:37:51;;;;;;;4.17;1.20;;;;;;;16.29;74.22;93546.75;5003759;28;20079;-79
2023/11/03 07:40:18;;;;;;;4.53;1.70;;;;;;;15.73;81.14;93544.69;5023011;28;20025;-79
2023/11/03 07:42:55;;;;;;;7.50;1.70;;;;;;;16.02;77.67;93542.41;4990532;28;20022;-79
2023/11/03 07:45:23;;;;;;;6.93;2.07;;;;;;;16.12;76.09;93552.28;4993274;28;20030;-79
2023/11/03 07:47:49;;;;;;;8.43;1.40;;;;;;;15.54;80.91;93560.94;5024042;28;20064;-79
2023/11/03 07:50:21;;;;;;;4.13;1.30;;;;;;;16.04;78.55;93558.88;5021130;28;20554;-79
2023/11/03 07:52:46;;;;;;;5.60;1.60;;;;;;;16.16;79.79;93559.47;5020050;28;20060;-79
2023/11/03 07:55:15;;;;;;;5.50;1.30;;;;;;;16.00;79.42;93558.59;4995749;28;20025;-79
2023/11/03 07:57:42;;;;;;;7.53;1.20;;;;;;;15.93;78.99;93559.88;4998266;28;20021;-80
2023/11/03 08:00:12;;;;;;;5.87;1.30;;;;;;;15.93;79.48;93554.59;4996188;28;20029;-80
2023/11/03 08:02:40;;;;;;;2.65;0.73;;;;;;;15.82;80.39;93552.91;5012996;28;20034;-79
2023/11/03 08:05:09;;;;;;;6.73;1.40;;;;;;;16.31;76.13;93555.28;4998506;28;20033;-79
2023/11/03 08:07:36;;;;;;;9.30;1.53;;;;;;;15.67;78.51;93557.09;4993527;28;20030;-79
2023/11/03 08:10:03;;;;;;;6.77;1.43;;;;;;;15.66;83.63;93549.34;5011775;28;20030;-79
2023/11/03 08:12:38;;;;;;;3.77;1.27;;;;;;;16.02;79.09;93553.03;4999813;28;20187;-79
2023/11/03 08:15:06;;;;;;;5.43;1.00;;;;;;;15.57;80.33;93551.69;5022870;28;20740;-79
2023/11/03 08:17:32;;;;;;;2.63;1.10;;;;;;;16.32;76.65;93548.91;5025509;28;20078;-79
2023/11/03 08:19:58;;;;;;;5.40;1.30;;;;;;;16.33;76.06;93547.81;4992148;28;20439;-79
2023/11/03 08:22:24;;;;;;;5.83;1.30;;;;;;;15.89;78.00;93556.94;5006028;28;20032;-79
2023/11/03 08:24:58;;;;;;;4.33;1.53;;;;;;;16.62;74.61;93550.84;5003466;28;20030;-79
2023/11/03 08:27:23;;;;;;;3.63;1.10;;;;;;;16.73;72.00;93558.56;5009447;28;20034;-79
2023/11/03 08:29:49;;;;;;;3.77;1.00;;;;;;;16.84;72.63;93567.38;5006233;28;20076;-78
2023/11/03 08:32:15;;;;;;;5.37;1.10;;;;;;;16.12;77.57;93579.56;4998379;28;20017;-79
2023/11/03 08:34:41;;;;;;;4.53;1.57;;;;;;;16.87;73.60;93585.44;5021884;28;20072;-79
2023/11/03 08:37:07;;;;;;;5.57;1.50;;;;;;;16.33;75.63;93584.97;5006445;28;20053;-79
2023/11/03 08:39:33;;;;;;;4.53;1.27;;;;;;;16.44;77.05;93589.25;5007583;28;20123;-79
2023/11/03 08:42:02;;;;;;;5.07;1.40;;;;;;;16.65;73.07;93590.91;5001146;28;20026;-79
2023/11/03 08:44:30;;;;;;;9.40;2.60;;;;;;;16.41;81.82;93587.13;4987298;28;20060;-79
2023/11/03 08:46:55;;;;;;;7.40;2.80;;;;;;;16.31;78.31;93593.19;4994812;28;20082;-79
2023/11/03 08:49:21;;;;;;;6.43;2.00;;;;;;;16.37;74.80;93588.72;5004192;28;20033;-80
2023/11/03 08:51:47;;;;;;;4.27;0.80;;;;;;;15.85;81.29;93584.22;5023768;28;20033;-79
2023/11/03 08:54:14;;;;;;;6.87;2.47;;;;;;;16.13;80.91;93583.84;5013113;28;20076;-79
2023/11/03 08:56:40;;;;;;;3.77;0.93;;;;;;;15.98;82.46;93575.81;5003558;28;20040;-80
2023/11/03 08:59:06;;;;;;;6.20;1.37;;;;;;;15.76;81.69;93579.41;5019335;28;20062;-80
2023/11/03 09:01:32;;;;;;;6.80;1.30;;;;;;;15.87;83.59;93582.13;5006486;28;20111;-79
2023/11/03 09:03:59;;;;;;;6.40;1.63;;;;;;;16.32;77.97;93576.22;4998827;28;20111;-79
2023/11/03 09:06:25;;;;;;;5.93;1.73;;;;;;;16.36;78.83;93587.09;5018351;28;20021;-79
2023/11/03 09:08:52;;;;;;;4.20;1.10;;;;;;;16.05;78.96;93594.13;5035402;28;20065;-79
2023/11/03 09:11:31;;;;;;;8.87;2.23;;;;;;;16.01;81.00;93591.19;4996743;28;20045;-78
2023/11/03 09:14:01;;;;;;;5.73;1.57;;;;;;;16.22;82.62;93600.84;5028996;28;20590;-79
2023/11/03 09:16:27;;;;;;;5.33;1.30;;;;;;;16.79;76.96;93595.75;5014534;28;20037;-79
2023/11/03 09:18:53;;;;;;;6.50;1.00;;;;;;;16.58;79.88;93605.50;4997792;28;20391;-80
2023/11/03 09:21:20;;;;;;;4.60;1.63;;;;;;;16.64;76.91;93607.91;4999872;28;20239;-79
2023/11/03 09:23:47;;;;;;;4.93;0.93;;;;;;;17.39;75.74;93605.66;5005015;28;20551;-79
2023/11/03 09:26:13;;;;;;;6.07;2.00;;;;;;;16.96;76.73;93609.59;5026770;28;20128;-79
2023/11/03 09:28:38;;;;;;;7.77;2.37;;;;;;;16.56;76.18;93604.94;5012736;28;20938;-79
2023/11/03 09:31:05;;;;;;;6.30;1.83;;;;;;;17.53;71.47;93608.56;4997443;28;20025;-80
2023/11/03 09:33:31;;;;;;;9.20;3.27;;;;;;;17.04;73.42;93613.59;5013495;28;20033;-79
2023/11/03 09:35:56;;;;;;;7.30;1.30;;;;;;;16.90;75.50;93613.28;5000635;28;20048;-79
2023/11/03 09:38:22;;;;;;;3.17;1.37;;;;;;;17.16;74.37;93604.28;5024958;28;20114;-80
2023/11/03 09:40:48;;;;;;;6.90;1.30;;;;;;;17.11;72.90;93611.47;4991439;28;20055;-79
2023/11/03 09:43:14;;;;;;;6.00;1.57;;;;;;;17.45;80.51;93606.44;5015210;28;20021;-79
2023/11/03 09:46:13;;;;;;;4.67;1.30;;;;;;;16.50;78.69;93607.59;4993838;28;20047;-79
2023/11/03 09:48:42;;;;;;;6.07;1.10;;;;;;;17.83;72.95;93605.09;5016386;28;20017;-79
2023/11/03 09:51:09;;;;;;;3.87;1.63;;;;;;;17.03;70.85;93607.47;4990835;28;20018;-79
2023/11/03 09:53:35;;;;;;;6.17;2.13;;;;;;;16.76;80.17;93612.19;4994205;28;20026;-79
2023/11/03 09:56:02;;;;;;;4.20;1.53;;;;;;;17.66;74.10;93610.69;5003749;28;20045;-79
2023/11/03 09:58:30;;;;;;;4.30;1.83;;;;;;;17.11;78.27;93604.31;5009675;28;20758;-79
2023/11/03 10:00:56;;;;;;;5.20;0.93;;;;;;;17.35;75.82;93598.47;5003758;28;20029;-79
2023/11/03 10:03:22;;;;;;;3.20;1.00;;;;;;;17.86;72.53;93601.13;4995132;28;20387;-79
2023/11/03 10:05:48;;;;;;;6.80;1.10;;;;;;;17.65;73.08;93601.13;5003677;28;20017;-79
2023/11/03 10:08:17;;;;;;;7.57;1.40;;;;;;;16.86;77.42;93605.03;5016846;28;20021;-79
2023/11/03 10:10:46;;;;;;;4.60;0.93;;;;;;;17.09;77.22;93598.44;5014507;28;20055;-79
2023/11/03 10:13:15;;;;;;;6.27;2.50;;;;;;;16.69;78.88;93599.16;4993573;28;20095;-79
2023/11/03 10:15:43;;;;;;;3.47;0.97;;;;;;;17.00;76.05;93600.06;5007553;28;20097;-79
2023/11/03 10:18:09;;;;;;;5.10;1.33;;;;;;;16.90;77.02;93607.97;5035182;28;20032;-79
2023/11/03 10:20:38;;;;;;;3.83;1.30;;;;;;;16.82;77.18;93608.50;5004866;28;20083;-79
2023/11/03 10:23:05;;;;;;;3.97;0.87;;;;;;;17.08;77.15;93601.38;5017846;28;20021;-79
2023/11/03 10:25:31;;;;;;;3.07;0.80;;;;;;;17.24;73.18;93596.91;4994350;28;20026;-79
2023/11/03 10:27:57;;;;;;;6.40;0.97;;;;;;;16.77;75.52;93595.19;5003158;28;20059;-79
2023/11/03 10:30:25;;;;;;;3.37;0.80;;;;;;;17.59;72.45;93594.22;5002472;28;20049;-79
2023/11/03 10:32:52;;;;;;;4.70;1.87;;;;;;;16.40;76.58;93593.50;4997117;28;20074;-79
2023/11/03 10:35:18;;;;;;;8.07;2.27;;;;;;;17.03;86.42;93594.19;4993563;28;20029;-80
2023/11/03 10:37:46;;;;;;;6.73;1.73;;;;;;;16.14;87.14;93597.88;5004361;28;20021;-79
2023/11/03 10:40:13;;;;;;;8.07;1.20;;;;;;;16.63;79.47;93595.69;5013843;28;20033;-79
2023/11/03 10:42:50;;;;;;;4.10;1.10;;;;;;;16.44;81.17;93589.25;5003538;28;20020;-79
2023/11/03 10:45:20;;;;;;;4.00;1.00;;;;;;;16.73;80.23;93595.72;5002660;28;20025;-79
2023/11/03 10:47:53;;;;;;;6.30;2.23;;;;;;;16.48;80.48;93598.28;5005763;28;20026;-79
2023/11/03 10:50:20;;;;;;;5.20;1.23;;;;;;;16.62;82.45;93593.28;5016707;28;20607;-79
2023/11/03 10:53:14;;;;;;;8.33;1.10;;;;;;;17.36;74.63;93592.09;5004331;28;20033;-79
2023/11/03 10:55:51;;;;;;;6.53;1.20;;;;;;;17.22;75.67;93593.69;4986956;28;20043;-79
2023/11/03 10:58:22;;;;;;;6.07;0.80;;;;;;;17.13;81.33;93596.84;5001906;28;20549;-79
2023/11/03 11:00:58;;;;;;;4.20;1.30;;;;;;;17.14;77.63;93593.16;5026870;28;20027;-79
2023/11/03 11:03:28;;;;;;;5.60;1.53;;;;;;;16.63;81.86;93606.31;5024254;28;20544;-79
2023/11/03 11:06:03;;;;;;;5.27;1.20;;;;;;;16.53;81.23;93602.81;5012623;28;20547;-80
2023/11/03 11:08:32;;;;;;;4.60;1.00;;;;;;;17.36;73.52;93600.06;5023676;28;20046;-79
2023/11/03 11:10:59;;;;;;;6.83;1.00;;;;;;;16.98;79.78;93599.50;5019163;28;20182;-79
2023/11/03 11:13:26;;;;;;;6.70;1.10;;;;;;;17.17;74.76;93599.81;4998458;28;20041;-79
2023/11/03 11:15:57;;;;;;;4.03;1.23;;;;;;;16.55;84.64;93595.41;5028143;28;20047;-79
2023/11/03 11:18:25;;;;;;;6.90;1.93;;;;;;;17.02;80.69;93597.13;4997678;28;20040;-79
2023/11/03 11:20:55;;;;;;;9.50;2.43;;;;;;;16.38;83.77;93600.91;4998872;28;20041;-79
2023/11/03 11:23:33;;;;;;;9.27;3.23;;;;;;;16.84;84.77;93609.03;5018338;28;20069;-79
2023/11/03 11:26:01;;;;;;;5.80;2.03;;;;;;;17.12;79.59;93607.75;5003131;28;20056;-79
2023/11/03 11:28:40;;;;;;;4.60;1.33;;;;;;;17.19;80.59;93608.28;5000407;28;20109;-84
2023/11/03 11:31:27;;;;;;;3.50;1.23;;;;;;;17.51;77.14;93605.38;4996009;28;20025;-79
2023/11/03 11:34:06;;;;;;;5.93;1.73;;;;;;;17.47;78.35;93604.34;4998032;28;20099;-79